sensor_id;sensor_type;location;lat;lon;timestamp;P1;durP1;ratioP1;P2;durP2;ratioP2
11671;SDS011;5892;43.412;24.612;2023-07-31T00:01:58;8.40;;;7.70;;
11671;SDS011;5892;43.412;24.612;2023-07-31T00:04:25;8.47;;;7.63;;
11671;SDS011;5892;43.412;24.612;2023-07-31T00:06:52;7.80;;;7.00;;
11671;SDS011;5892;43.412;24.612;2023-07-31T00:09:19;7.80;;;7.10;;
11671;SDS011;5892;43.412;24.612;2023-07-31T00:11:45;7.70;;;7.10;;
11671;SDS011;5892;43.412;24.612;2023-07-31T00:14:12;7.63;;;6.90;;
11671;SDS011;5892;43.412;24.612;2023-07-31T00:16:41;8.00;;;6.40;;
11671;SDS011;5892;43.412;24.612;2023-07-31T00:19:07;6.80;;;6.20;;
11671;SDS011;5892;43.412;24.612;2023-07-31T00:21:34;7.57;;;5.83;;
11671;SDS011;5892;43.412;24.612;2023-07-31T00:24:01;6.30;;;5.70;;
11671;SDS011;5892;43.412;24.612;2023-07-31T00:26:28;6.47;;;5.73;;
11671;SDS011;5892;43.412;24.612;2023-07-31T00:28:54;6.13;;;5.50;;
11671;SDS011;5892;43.412;24.612;2023-07-31T00:31:20;6.37;;;5.63;;
11671;SDS011;5892;43.412;24.612;2023-07-31T00:33:49;6.00;;;5.50;;
11671;SDS011;5892;43.412;24.612;2023-07-31T00:36:15;5.63;;;5.10;;
11671;SDS011;5892;43.412;24.612;2023-07-31T00:38:44;5.53;;;5.03;;
11671;SDS011;5892;43.412;24.612;2023-07-31T00:41:11;5.57;;;5.00;;
11671;SDS011;5892;43.412;24.612;2023-07-31T00:43:37;5.50;;;5.00;;
11671;SDS011;5892;43.412;24.612;2023-07-31T00:46:05;6.90;;;5.10;;
11671;SDS011;5892;43.412;24.612;2023-07-31T00:48:32;5.63;;;5.13;;
11671;SDS011;5892;43.412;24.612;2023-07-31T00:51:01;5.50;;;5.10;;
11671;SDS011;5892;43.412;24.612;2023-07-31T00:53:27;6.20;;;5.70;;
11671;SDS011;5892;43.412;24.612;2023-07-31T00:55:54;7.13;;;6.07;;
11671;SDS011;5892;43.412;24.612;2023-07-31T00:58:22;6.63;;;5.97;;
11671;SDS011;5892;43.412;24.612;2023-07-31T01:00:49;7.03;;;6.33;;
11671;SDS011;5892;43.412;24.612;2023-07-31T01:03:16;6.70;;;6.13;;
11671;SDS011;5892;43.412;24.612;2023-07-31T01:05:46;7.10;;;6.50;;
11671;SDS011;5892;43.412;24.612;2023-07-31T01:08:24;6.60;;;6.10;;
11671;SDS011;5892;43.412;24.612;2023-07-31T01:11:00;7.50;;;5.93;;
11671;SDS011;5892;43.412;24.612;2023-07-31T01:13:40;7.53;;;6.83;;
11671;SDS011;5892;43.412;24.612;2023-07-31T01:16:07;7.60;;;6.90;;
11671;SDS011;5892;43.412;24.612;2023-07-31T01:18:34;8.20;;;7.40;;
11671;SDS011;5892;43.412;24.612;2023-07-31T01:21:03;8.50;;;7.80;;
11671;SDS011;5892;43.412;24.612;2023-07-31T01:23:51;8.73;;;7.93;;
11671;SDS011;5892;43.412;24.612;2023-07-31T01:26:36;9.10;;;8.30;;
11671;SDS011;5892;43.412;24.612;2023-07-31T01:29:07;9.77;;;8.87;;
11671;SDS011;5892;43.412;24.612;2023-07-31T01:31:39;8.53;;;7.83;;
11671;SDS011;5892;43.412;24.612;2023-07-31T01:34:07;9.53;;;8.73;;
11671;SDS011;5892;43.412;24.612;2023-07-31T01:36:36;9.37;;;8.67;;
11671;SDS011;5892;43.412;24.612;2023-07-31T01:39:03;9.67;;;8.77;;
11671;SDS011;5892;43.412;24.612;2023-07-31T01:41:30;9.40;;;8.67;;
11671;SDS011;5892;43.412;24.612;2023-07-31T01:43:58;9.43;;;8.63;;
11671;SDS011;5892;43.412;24.612;2023-07-31T01:46:25;8.83;;;8.10;;
11671;SDS011;5892;43.412;24.612;2023-07-31T01:48:51;8.80;;;8.10;;
11671;SDS011;5892;43.412;24.612;2023-07-31T01:51:18;9.00;;;8.30;;
11671;SDS011;5892;43.412;24.612;2023-07-31T01:53:45;9.47;;;8.50;;
11671;SDS011;5892;43.412;24.612;2023-07-31T01:56:12;9.43;;;8.60;;
11671;SDS011;5892;43.412;24.612;2023-07-31T01:58:39;10.00;;;9.20;;
11671;SDS011;5892;43.412;24.612;2023-07-31T02:01:07;10.00;;;9.20;;
11671;SDS011;5892;43.412;24.612;2023-07-31T02:03:33;10.07;;;9.27;;
11671;SDS011;5892;43.412;24.612;2023-07-31T02:06:00;10.67;;;9.87;;
11671;SDS011;5892;43.412;24.612;2023-07-31T02:08:27;11.10;;;10.20;;
11671;SDS011;5892;43.412;24.612;2023-07-31T02:10:54;10.47;;;9.67;;
11671;SDS011;5892;43.412;24.612;2023-07-31T02:13:21;10.57;;;9.70;;
11671;SDS011;5892;43.412;24.612;2023-07-31T02:15:48;10.93;;;10.03;;
11671;SDS011;5892;43.412;24.612;2023-07-31T02:18:17;10.93;;;9.93;;
11671;SDS011;5892;43.412;24.612;2023-07-31T02:20:48;10.40;;;9.60;;
11671;SDS011;5892;43.412;24.612;2023-07-31T02:23:16;10.57;;;9.77;;
11671;SDS011;5892;43.412;24.612;2023-07-31T02:25:43;10.87;;;9.83;;
11671;SDS011;5892;43.412;24.612;2023-07-31T02:28:09;10.87;;;9.77;;
11671;SDS011;5892;43.412;24.612;2023-07-31T02:30:36;10.63;;;9.60;;
11671;SDS011;5892;43.412;24.612;2023-07-31T02:33:04;11.07;;;10.17;;
11671;SDS011;5892;43.412;24.612;2023-07-31T02:35:32;11.70;;;10.70;;
11671;SDS011;5892;43.412;24.612;2023-07-31T02:37:59;10.90;;;9.80;;
11671;SDS011;5892;43.412;24.612;2023-07-31T02:40:26;11.63;;;10.30;;
11671;SDS011;5892;43.412;24.612;2023-07-31T02:42:52;11.77;;;10.77;;
11671;SDS011;5892;43.412;24.612;2023-07-31T02:45:19;11.70;;;10.67;;
11671;SDS011;5892;43.412;24.612;2023-07-31T02:47:46;12.33;;;11.23;;
11671;SDS011;5892;43.412;24.612;2023-07-31T02:50:13;12.07;;;11.07;;
11671;SDS011;5892;43.412;24.612;2023-07-31T02:52:41;12.27;;;11.07;;
11671;SDS011;5892;43.412;24.612;2023-07-31T02:55:08;12.27;;;11.20;;
11671;SDS011;5892;43.412;24.612;2023-07-31T02:57:35;12.53;;;11.33;;
11671;SDS011;5892;43.412;24.612;2023-07-31T03:00:02;11.67;;;10.67;;
11671;SDS011;5892;43.412;24.612;2023-07-31T03:02:31;11.80;;;10.90;;
11671;SDS011;5892;43.412;24.612;2023-07-31T03:04:58;12.63;;;11.50;;
11671;SDS011;5892;43.412;24.612;2023-07-31T03:07:25;12.23;;;11.13;;
11671;SDS011;5892;43.412;24.612;2023-07-31T03:09:53;11.97;;;10.97;;
11671;SDS011;5892;43.412;24.612;2023-07-31T03:12:20;12.23;;;11.23;;
11671;SDS011;5892;43.412;24.612;2023-07-31T03:14:46;12.53;;;11.47;;
11671;SDS011;5892;43.412;24.612;2023-07-31T03:17:15;12.63;;;11.60;;
11671;SDS011;5892;43.412;24.612;2023-07-31T03:19:41;12.53;;;11.43;;
11671;SDS011;5892;43.412;24.612;2023-07-31T03:22:08;13.90;;;11.67;;
11671;SDS011;5892;43.412;24.612;2023-07-31T03:24:35;12.67;;;11.50;;
11671;SDS011;5892;43.412;24.612;2023-07-31T03:27:04;12.03;;;11.03;;
11671;SDS011;5892;43.412;24.612;2023-07-31T03:29:31;12.37;;;11.37;;
11671;SDS011;5892;43.412;24.612;2023-07-31T03:31:58;12.40;;;11.30;;
11671;SDS011;5892;43.412;24.612;2023-07-31T03:34:26;12.40;;;11.33;;
11671;SDS011;5892;43.412;24.612;2023-07-31T03:36:52;12.37;;;11.37;;
11671;SDS011;5892;43.412;24.612;2023-07-31T03:39:19;13.30;;;12.10;;
11671;SDS011;5892;43.412;24.612;2023-07-31T03:41:46;13.23;;;12.07;;
11671;SDS011;5892;43.412;24.612;2023-07-31T03:44:14;13.57;;;12.37;;
11671;SDS011;5892;43.412;24.612;2023-07-31T03:46:41;13.20;;;12.10;;
11671;SDS011;5892;43.412;24.612;2023-07-31T03:49:08;13.40;;;12.10;;
11671;SDS011;5892;43.412;24.612;2023-07-31T03:51:35;13.30;;;12.20;;
11671;SDS011;5892;43.412;24.612;2023-07-31T03:54:02;13.97;;;12.63;;
11671;SDS011;5892;43.412;24.612;2023-07-31T03:56:29;14.03;;;12.80;;
11671;SDS011;5892;43.412;24.612;2023-07-31T03:58:55;14.53;;;13.10;;
11671;SDS011;5892;43.412;24.612;2023-07-31T04:01:24;14.80;;;13.50;;
11671;SDS011;5892;43.412;24.612;2023-07-31T04:03:50;13.87;;;12.70;;
11671;SDS011;5892;43.412;24.612;2023-07-31T04:06:17;14.23;;;13.13;;
11671;SDS011;5892;43.412;24.612;2023-07-31T04:08:44;14.30;;;13.10;;
11671;SDS011;5892;43.412;24.612;2023-07-31T04:11:11;14.43;;;13.23;;
11671;SDS011;5892;43.412;24.612;2023-07-31T04:13:38;13.63;;;12.47;;
11671;SDS011;5892;43.412;24.612;2023-07-31T04:16:05;14.90;;;13.50;;
11671;SDS011;5892;43.412;24.612;2023-07-31T04:18:33;14.90;;;13.17;;
11671;SDS011;5892;43.412;24.612;2023-07-31T04:21:00;14.03;;;12.63;;
11671;SDS011;5892;43.412;24.612;2023-07-31T04:23:27;14.53;;;13.23;;
11671;SDS011;5892;43.412;24.612;2023-07-31T04:25:54;14.17;;;13.07;;
11671;SDS011;5892;43.412;24.612;2023-07-31T04:28:21;13.70;;;12.40;;
11671;SDS011;5892;43.412;24.612;2023-07-31T04:30:48;14.10;;;12.90;;
11671;SDS011;5892;43.412;24.612;2023-07-31T04:33:15;14.57;;;12.63;;
11671;SDS011;5892;43.412;24.612;2023-07-31T04:35:46;13.43;;;12.30;;
11671;SDS011;5892;43.412;24.612;2023-07-31T04:38:17;14.03;;;12.70;;
11671;SDS011;5892;43.412;24.612;2023-07-31T04:40:44;13.47;;;12.30;;
11671;SDS011;5892;43.412;24.612;2023-07-31T04:43:11;13.00;;;11.90;;
11671;SDS011;5892;43.412;24.612;2023-07-31T04:45:37;12.93;;;11.83;;
11671;SDS011;5892;43.412;24.612;2023-07-31T04:48:05;13.57;;;12.27;;
11671;SDS011;5892;43.412;24.612;2023-07-31T04:50:34;12.80;;;11.70;;
11671;SDS011;5892;43.412;24.612;2023-07-31T04:53:02;12.77;;;11.67;;
11671;SDS011;5892;43.412;24.612;2023-07-31T04:55:29;12.30;;;11.27;;
11671;SDS011;5892;43.412;24.612;2023-07-31T04:57:55;11.70;;;10.67;;
11671;SDS011;5892;43.412;24.612;2023-07-31T05:00:23;11.60;;;10.40;;
11671;SDS011;5892;43.412;24.612;2023-07-31T05:02:50;10.80;;;9.70;;
11671;SDS011;5892;43.412;24.612;2023-07-31T05:05:17;10.87;;;9.93;;
11671;SDS011;5892;43.412;24.612;2023-07-31T05:07:44;10.70;;;9.80;;
11671;SDS011;5892;43.412;24.612;2023-07-31T05:10:12;11.47;;;10.30;;
11671;SDS011;5892;43.412;24.612;2023-07-31T05:12:39;10.30;;;9.40;;
11671;SDS011;5892;43.412;24.612;2023-07-31T05:15:06;10.30;;;9.30;;
11671;SDS011;5892;43.412;24.612;2023-07-31T05:17:34;10.17;;;9.17;;
11671;SDS011;5892;43.412;24.612;2023-07-31T05:20:01;10.13;;;9.13;;
11671;SDS011;5892;43.412;24.612;2023-07-31T05:22:27;9.83;;;8.93;;
11671;SDS011;5892;43.412;24.612;2023-07-31T05:24:54;9.53;;;8.63;;
11671;SDS011;5892;43.412;24.612;2023-07-31T05:27:23;8.87;;;8.17;;
11671;SDS011;5892;43.412;24.612;2023-07-31T05:29:49;8.63;;;7.83;;
11671;SDS011;5892;43.412;24.612;2023-07-31T05:32:18;8.17;;;7.47;;
11671;SDS011;5892;43.412;24.612;2023-07-31T05:34:44;7.90;;;7.20;;
11671;SDS011;5892;43.412;24.612;2023-07-31T05:37:12;7.50;;;6.80;;
11671;SDS011;5892;43.412;24.612;2023-07-31T05:39:39;6.77;;;6.23;;
11671;SDS011;5892;43.412;24.612;2023-07-31T05:42:06;7.60;;;6.87;;
11671;SDS011;5892;43.412;24.612;2023-07-31T05:44:34;7.07;;;6.43;;
11671;SDS011;5892;43.412;24.612;2023-07-31T05:47:01;7.80;;;6.60;;
11671;SDS011;5892;43.412;24.612;2023-07-31T05:49:28;7.40;;;6.70;;
11671;SDS011;5892;43.412;24.612;2023-07-31T05:51:54;7.53;;;6.93;;
11671;SDS011;5892;43.412;24.612;2023-07-31T05:54:21;7.80;;;7.10;;
11671;SDS011;5892;43.412;24.612;2023-07-31T05:56:48;9.63;;;7.00;;
11671;SDS011;5892;43.412;24.612;2023-07-31T05:59:15;7.47;;;6.70;;
11671;SDS011;5892;43.412;24.612;2023-07-31T06:01:44;8.83;;;7.67;;
11671;SDS011;5892;43.412;24.612;2023-07-31T06:04:10;8.30;;;7.43;;
11671;SDS011;5892;43.412;24.612;2023-07-31T06:06:37;7.90;;;7.10;;
11671;SDS011;5892;43.412;24.612;2023-07-31T06:09:04;7.90;;;7.20;;
11671;SDS011;5892;43.412;24.612;2023-07-31T06:11:32;10.73;;;7.17;;
11671;SDS011;5892;43.412;24.612;2023-07-31T06:13:59;9.30;;;6.97;;
11671;SDS011;5892;43.412;24.612;2023-07-31T06:16:26;6.43;;;5.90;;
11671;SDS011;5892;43.412;24.612;2023-07-31T06:18:54;6.00;;;5.40;;
11671;SDS011;5892;43.412;24.612;2023-07-31T06:21:21;6.23;;;5.37;;
11671;SDS011;5892;43.412;24.612;2023-07-31T06:23:48;5.20;;;4.80;;
11671;SDS011;5892;43.412;24.612;2023-07-31T06:26:15;4.80;;;4.40;;
11671;SDS011;5892;43.412;24.612;2023-07-31T06:28:42;4.90;;;4.47;;
11671;SDS011;5892;43.412;24.612;2023-07-31T06:31:09;4.73;;;4.20;;
11671;SDS011;5892;43.412;24.612;2023-07-31T06:33:36;7.80;;;4.30;;
11671;SDS011;5892;43.412;24.612;2023-07-31T06:36:04;4.73;;;4.30;;
11671;SDS011;5892;43.412;24.612;2023-07-31T06:38:31;6.03;;;4.47;;
11671;SDS011;5892;43.412;24.612;2023-07-31T06:40:58;6.17;;;4.27;;
11671;SDS011;5892;43.412;24.612;2023-07-31T06:43:25;4.10;;;3.80;;
11671;SDS011;5892;43.412;24.612;2023-07-31T06:45:52;4.63;;;4.20;;
11671;SDS011;5892;43.412;24.612;2023-07-31T06:48:19;4.07;;;3.70;;
11671;SDS011;5892;43.412;24.612;2023-07-31T06:50:45;4.23;;;3.83;;
11671;SDS011;5892;43.412;24.612;2023-07-31T06:53:14;5.47;;;4.00;;
11671;SDS011;5892;43.412;24.612;2023-07-31T06:55:41;4.47;;;4.13;;
11671;SDS011;5892;43.412;24.612;2023-07-31T06:58:07;4.57;;;4.17;;
11671;SDS011;5892;43.412;24.612;2023-07-31T07:00:34;5.37;;;4.10;;
11671;SDS011;5892;43.412;24.612;2023-07-31T07:03:01;4.30;;;3.90;;
11671;SDS011;5892;43.412;24.612;2023-07-31T07:05:28;4.77;;;4.10;;
11671;SDS011;5892;43.412;24.612;2023-07-31T07:07:55;5.27;;;3.97;;
11671;SDS011;5892;43.412;24.612;2023-07-31T07:10:23;5.00;;;3.80;;
11671;SDS011;5892;43.412;24.612;2023-07-31T07:12:50;4.10;;;3.80;;
11671;SDS011;5892;43.412;24.612;2023-07-31T07:15:17;3.90;;;3.60;;
11671;SDS011;5892;43.412;24.612;2023-07-31T07:17:44;3.90;;;3.60;;
11671;SDS011;5892;43.412;24.612;2023-07-31T07:20:11;3.80;;;3.50;;
11671;SDS011;5892;43.412;24.612;2023-07-31T07:22:38;4.17;;;3.60;;
11671;SDS011;5892;43.412;24.612;2023-07-31T07:25:05;4.43;;;3.70;;
11671;SDS011;5892;43.412;24.612;2023-07-31T07:27:34;4.10;;;3.50;;
11671;SDS011;5892;43.412;24.612;2023-07-31T07:30:01;4.17;;;3.77;;
11671;SDS011;5892;43.412;24.612;2023-07-31T07:32:28;3.77;;;3.47;;
11671;SDS011;5892;43.412;24.612;2023-07-31T07:34:55;4.30;;;3.60;;
11671;SDS011;5892;43.412;24.612;2023-07-31T07:37:22;3.87;;;3.47;;
11671;SDS011;5892;43.412;24.612;2023-07-31T07:39:49;5.00;;;3.40;;
11671;SDS011;5892;43.412;24.612;2023-07-31T07:42:16;3.80;;;3.50;;
11671;SDS011;5892;43.412;24.612;2023-07-31T07:44:44;4.10;;;3.80;;
11671;SDS011;5892;43.412;24.612;2023-07-31T07:47:11;4.93;;;3.83;;
11671;SDS011;5892;43.412;24.612;2023-07-31T07:49:39;4.00;;;3.70;;
11671;SDS011;5892;43.412;24.612;2023-07-31T07:52:06;5.23;;;3.40;;
11671;SDS011;5892;43.412;24.612;2023-07-31T07:54:33;4.00;;;3.60;;
11671;SDS011;5892;43.412;24.612;2023-07-31T07:57:00;3.80;;;3.40;;
11671;SDS011;5892;43.412;24.612;2023-07-31T07:59:27;3.90;;;3.60;;
11671;SDS011;5892;43.412;24.612;2023-07-31T08:01:55;5.50;;;3.63;;
11671;SDS011;5892;43.412;24.612;2023-07-31T08:04:22;4.13;;;3.73;;
11671;SDS011;5892;43.412;24.612;2023-07-31T08:06:49;3.70;;;3.40;;
11671;SDS011;5892;43.412;24.612;2023-07-31T08:09:16;6.20;;;3.70;;
11671;SDS011;5892;43.412;24.612;2023-07-31T08:11:44;5.57;;;3.57;;
11671;SDS011;5892;43.412;24.612;2023-07-31T08:14:11;3.90;;;3.50;;
11671;SDS011;5892;43.412;24.612;2023-07-31T08:16:38;3.63;;;3.33;;
11671;SDS011;5892;43.412;24.612;2023-07-31T08:19:06;3.53;;;3.30;;
11671;SDS011;5892;43.412;24.612;2023-07-31T08:21:33;3.60;;;3.30;;
11671;SDS011;5892;43.412;24.612;2023-07-31T08:24:00;7.43;;;3.20;;
11671;SDS011;5892;43.412;24.612;2023-07-31T08:26:27;3.97;;;3.20;;
11671;SDS011;5892;43.412;24.612;2023-07-31T08:28:53;3.80;;;3.40;;
11671;SDS011;5892;43.412;24.612;2023-07-31T08:31:20;3.20;;;3.00;;
11671;SDS011;5892;43.412;24.612;2023-07-31T08:33:47;3.07;;;2.87;;
11671;SDS011;5892;43.412;24.612;2023-07-31T08:36:15;4.80;;;2.93;;
11671;SDS011;5892;43.412;24.612;2023-07-31T08:38:42;5.10;;;3.10;;
11671;SDS011;5892;43.412;24.612;2023-07-31T08:41:12;5.63;;;3.50;;
11671;SDS011;5892;43.412;24.612;2023-07-31T08:43:39;3.57;;;3.27;;
11671;SDS011;5892;43.412;24.612;2023-07-31T08:46:07;6.53;;;3.27;;
11671;SDS011;5892;43.412;24.612;2023-07-31T08:48:34;4.83;;;3.60;;
11671;SDS011;5892;43.412;24.612;2023-07-31T08:51:03;3.60;;;3.30;;
11671;SDS011;5892;43.412;24.612;2023-07-31T08:53:32;4.00;;;3.10;;
11671;SDS011;5892;43.412;24.612;2023-07-31T08:55:59;4.13;;;3.73;;
11671;SDS011;5892;43.412;24.612;2023-07-31T08:58:26;5.00;;;3.40;;
11671;SDS011;5892;43.412;24.612;2023-07-31T09:00:57;4.37;;;3.40;;
11671;SDS011;5892;43.412;24.612;2023-07-31T09:03:25;3.40;;;3.10;;
11671;SDS011;5892;43.412;24.612;2023-07-31T09:05:52;3.53;;;3.23;;
11671;SDS011;5892;43.412;24.612;2023-07-31T09:08:23;3.90;;;3.20;;
11671;SDS011;5892;43.412;24.612;2023-07-31T09:10:54;4.47;;;3.60;;
11671;SDS011;5892;43.412;24.612;2023-07-31T09:13:25;3.40;;;3.10;;
11671;SDS011;5892;43.412;24.612;2023-07-31T09:15:53;3.60;;;3.30;;
11671;SDS011;5892;43.412;24.612;2023-07-31T09:18:23;4.70;;;3.20;;
11671;SDS011;5892;43.412;24.612;2023-07-31T09:21:00;3.63;;;3.40;;
11671;SDS011;5892;43.412;24.612;2023-07-31T09:23:39;4.47;;;3.60;;
11671;SDS011;5892;43.412;24.612;2023-07-31T09:26:08;3.93;;;3.50;;
11671;SDS011;5892;43.412;24.612;2023-07-31T09:28:35;4.30;;;3.50;;
11671;SDS011;5892;43.412;24.612;2023-07-31T09:31:02;4.73;;;3.47;;
11671;SDS011;5892;43.412;24.612;2023-07-31T09:33:30;4.00;;;3.70;;
11671;SDS011;5892;43.412;24.612;2023-07-31T09:35:58;3.90;;;3.60;;
11671;SDS011;5892;43.412;24.612;2023-07-31T09:38:25;4.33;;;3.77;;
11671;SDS011;5892;43.412;24.612;2023-07-31T09:40:52;4.73;;;3.90;;
11671;SDS011;5892;43.412;24.612;2023-07-31T09:43:21;4.13;;;3.70;;
11671;SDS011;5892;43.412;24.612;2023-07-31T09:45:54;5.33;;;3.97;;
11671;SDS011;5892;43.412;24.612;2023-07-31T09:48:23;4.23;;;3.83;;
11671;SDS011;5892;43.412;24.612;2023-07-31T09:50:52;4.10;;;3.70;;
11671;SDS011;5892;43.412;24.612;2023-07-31T09:53:19;5.70;;;3.43;;
11671;SDS011;5892;43.412;24.612;2023-07-31T09:55:56;4.03;;;3.73;;
11671;SDS011;5892;43.412;24.612;2023-07-31T09:58:26;6.10;;;4.20;;
11671;SDS011;5892;43.412;24.612;2023-07-31T10:00:56;5.13;;;4.73;;
11671;SDS011;5892;43.412;24.612;2023-07-31T10:03:24;5.50;;;5.00;;
11671;SDS011;5892;43.412;24.612;2023-07-31T10:05:53;5.90;;;5.17;;
11671;SDS011;5892;43.412;24.612;2023-07-31T10:08:22;6.50;;;5.93;;
11671;SDS011;5892;43.412;24.612;2023-07-31T10:10:54;6.40;;;5.80;;
11671;SDS011;5892;43.412;24.612;2023-07-31T10:13:26;6.60;;;6.00;;
11671;SDS011;5892;43.412;24.612;2023-07-31T10:15:56;14.30;;;6.10;;
11671;SDS011;5892;43.412;24.612;2023-07-31T10:18:25;6.67;;;6.00;;
11671;SDS011;5892;43.412;24.612;2023-07-31T10:20:53;6.90;;;6.20;;
11671;SDS011;5892;43.412;24.612;2023-07-31T10:23:21;7.03;;;6.27;;
11671;SDS011;5892;43.412;24.612;2023-07-31T10:25:49;6.67;;;5.90;;
11671;SDS011;5892;43.412;24.612;2023-07-31T10:28:17;6.40;;;5.70;;
11671;SDS011;5892;43.412;24.612;2023-07-31T10:30:45;6.43;;;5.83;;
11671;SDS011;5892;43.412;24.612;2023-07-31T10:33:13;8.60;;;5.80;;
11671;SDS011;5892;43.412;24.612;2023-07-31T10:35:40;5.80;;;5.20;;
11671;SDS011;5892;43.412;24.612;2023-07-31T10:38:10;7.20;;;5.27;;
11671;SDS011;5892;43.412;24.612;2023-07-31T10:40:38;5.60;;;5.00;;
11671;SDS011;5892;43.412;24.612;2023-07-31T10:43:06;5.47;;;4.97;;
11671;SDS011;5892;43.412;24.612;2023-07-31T10:45:34;9.33;;;5.00;;
11671;SDS011;5892;43.412;24.612;2023-07-31T10:48:04;6.90;;;4.67;;
11671;SDS011;5892;43.412;24.612;2023-07-31T10:50:32;7.80;;;5.00;;
11671;SDS011;5892;43.412;24.612;2023-07-31T10:53:04;7.07;;;4.80;;
11671;SDS011;5892;43.412;24.612;2023-07-31T10:55:32;5.70;;;4.70;;
11671;SDS011;5892;43.412;24.612;2023-07-31T10:58:05;7.53;;;4.63;;
11671;SDS011;5892;43.412;24.612;2023-07-31T11:00:34;6.73;;;4.53;;
11671;SDS011;5892;43.412;24.612;2023-07-31T11:03:05;4.20;;;3.80;;
11671;SDS011;5892;43.412;24.612;2023-07-31T11:05:44;6.67;;;4.20;;
11671;SDS011;5892;43.412;24.612;2023-07-31T11:08:13;4.20;;;3.80;;
11671;SDS011;5892;43.412;24.612;2023-07-31T11:10:41;4.63;;;3.43;;
11671;SDS011;5892;43.412;24.612;2023-07-31T11:13:09;3.70;;;3.40;;
11671;SDS011;5892;43.412;24.612;2023-07-31T11:15:36;4.30;;;3.53;;
11671;SDS011;5892;43.412;24.612;2023-07-31T11:18:05;3.47;;;3.17;;
11671;SDS011;5892;43.412;24.612;2023-07-31T11:20:33;3.77;;;3.40;;
11671;SDS011;5892;43.412;24.612;2023-07-31T11:23:01;5.43;;;3.50;;
11671;SDS011;5892;43.412;24.612;2023-07-31T11:25:29;4.60;;;3.30;;
11671;SDS011;5892;43.412;24.612;2023-07-31T11:27:56;3.83;;;3.53;;
11671;SDS011;5892;43.412;24.612;2023-07-31T11:30:23;3.70;;;3.40;;
11671;SDS011;5892;43.412;24.612;2023-07-31T11:32:50;5.27;;;3.37;;
11671;SDS011;5892;43.412;24.612;2023-07-31T11:35:19;5.10;;;3.80;;
11671;SDS011;5892;43.412;24.612;2023-07-31T11:37:47;4.07;;;3.67;;
11671;SDS011;5892;43.412;24.612;2023-07-31T11:40:14;4.07;;;3.67;;
11671;SDS011;5892;43.412;24.612;2023-07-31T11:42:41;4.23;;;3.83;;
11671;SDS011;5892;43.412;24.612;2023-07-31T11:45:08;4.30;;;3.90;;
11671;SDS011;5892;43.412;24.612;2023-07-31T11:47:36;4.47;;;4.03;;
11671;SDS011;5892;43.412;24.612;2023-07-31T11:50:04;5.43;;;4.40;;
11671;SDS011;5892;43.412;24.612;2023-07-31T11:52:36;4.60;;;4.20;;
11671;SDS011;5892;43.412;24.612;2023-07-31T11:55:07;5.23;;;4.50;;
11671;SDS011;5892;43.412;24.612;2023-07-31T11:57:36;5.27;;;4.70;;
11671;SDS011;5892;43.412;24.612;2023-07-31T12:00:04;5.10;;;4.70;;
11671;SDS011;5892;43.412;24.612;2023-07-31T12:02:33;5.40;;;5.00;;
11671;SDS011;5892;43.412;24.612;2023-07-31T12:05:00;6.20;;;5.63;;
11671;SDS011;5892;43.412;24.612;2023-07-31T12:07:27;5.93;;;5.43;;
11671;SDS011;5892;43.412;24.612;2023-07-31T12:09:55;6.40;;;5.80;;
11671;SDS011;5892;43.412;24.612;2023-07-31T12:12:23;6.13;;;5.53;;
11671;SDS011;5892;43.412;24.612;2023-07-31T12:14:53;5.70;;;4.97;;
11671;SDS011;5892;43.412;24.612;2023-07-31T12:17:21;5.77;;;5.27;;
11671;SDS011;5892;43.412;24.612;2023-07-31T12:19:48;5.30;;;4.90;;
11671;SDS011;5892;43.412;24.612;2023-07-31T12:22:15;5.10;;;4.70;;
11671;SDS011;5892;43.412;24.612;2023-07-31T12:24:43;5.50;;;5.10;;
11671;SDS011;5892;43.412;24.612;2023-07-31T12:27:13;5.93;;;5.20;;
11671;SDS011;5892;43.412;24.612;2023-07-31T12:29:43;5.27;;;4.87;;
11671;SDS011;5892;43.412;24.612;2023-07-31T12:32:19;5.00;;;4.60;;
11671;SDS011;5892;43.412;24.612;2023-07-31T12:34:47;5.47;;;4.97;;
11671;SDS011;5892;43.412;24.612;2023-07-31T12:37:15;5.30;;;4.83;;
11671;SDS011;5892;43.412;24.612;2023-07-31T12:39:42;5.50;;;5.00;;
11671;SDS011;5892;43.412;24.612;2023-07-31T12:42:09;5.27;;;4.77;;
11671;SDS011;5892;43.412;24.612;2023-07-31T12:44:37;4.97;;;4.57;;
11671;SDS011;5892;43.412;24.612;2023-07-31T12:47:04;5.73;;;4.40;;
11671;SDS011;5892;43.412;24.612;2023-07-31T12:49:31;6.60;;;4.70;;
11671;SDS011;5892;43.412;24.612;2023-07-31T12:51:58;4.70;;;4.30;;
11671;SDS011;5892;43.412;24.612;2023-07-31T12:54:25;4.40;;;4.10;;
11671;SDS011;5892;43.412;24.612;2023-07-31T12:56:52;4.80;;;4.40;;
11671;SDS011;5892;43.412;24.612;2023-07-31T12:59:19;4.70;;;4.30;;
11671;SDS011;5892;43.412;24.612;2023-07-31T13:01:48;4.53;;;4.23;;
11671;SDS011;5892;43.412;24.612;2023-07-31T13:04:15;5.33;;;4.83;;
11671;SDS011;5892;43.412;24.612;2023-07-31T13:06:41;5.63;;;5.03;;
11671;SDS011;5892;43.412;24.612;2023-07-31T13:09:08;4.90;;;4.37;;
11671;SDS011;5892;43.412;24.612;2023-07-31T13:11:36;4.77;;;4.30;;
11671;SDS011;5892;43.412;24.612;2023-07-31T13:14:03;5.30;;;4.60;;
11671;SDS011;5892;43.412;24.612;2023-07-31T13:16:30;6.00;;;4.73;;
11671;SDS011;5892;43.412;24.612;2023-07-31T13:18:58;5.87;;;5.27;;
11671;SDS011;5892;43.412;24.612;2023-07-31T13:21:25;5.57;;;4.80;;
11671;SDS011;5892;43.412;24.612;2023-07-31T13:23:51;6.13;;;4.67;;
11671;SDS011;5892;43.412;24.612;2023-07-31T13:26:18;5.60;;;4.77;;
11671;SDS011;5892;43.412;24.612;2023-07-31T13:28:45;5.70;;;5.20;;
11671;SDS011;5892;43.412;24.612;2023-07-31T13:31:12;6.90;;;5.90;;
11671;SDS011;5892;43.412;24.612;2023-07-31T13:33:39;8.07;;;6.23;;
11671;SDS011;5892;43.412;24.612;2023-07-31T13:36:07;6.53;;;6.03;;
11671;SDS011;5892;43.412;24.612;2023-07-31T13:38:35;7.13;;;6.53;;
11671;SDS011;5892;43.412;24.612;2023-07-31T13:41:01;6.93;;;6.23;;
11671;SDS011;5892;43.412;24.612;2023-07-31T13:43:30;7.03;;;6.33;;
11671;SDS011;5892;43.412;24.612;2023-07-31T13:45:57;8.43;;;5.90;;
11671;SDS011;5892;43.412;24.612;2023-07-31T13:48:29;5.60;;;5.10;;
11671;SDS011;5892;43.412;24.612;2023-07-31T13:50:56;4.90;;;4.50;;
11671;SDS011;5892;43.412;24.612;2023-07-31T13:53:24;4.80;;;4.40;;
11671;SDS011;5892;43.412;24.612;2023-07-31T13:55:51;4.40;;;4.00;;
11671;SDS011;5892;43.412;24.612;2023-07-31T13:58:18;5.27;;;3.87;;
11671;SDS011;5892;43.412;24.612;2023-07-31T14:00:47;6.30;;;4.10;;
11671;SDS011;5892;43.412;24.612;2023-07-31T14:03:14;3.60;;;3.30;;
11671;SDS011;5892;43.412;24.612;2023-07-31T14:05:50;3.83;;;3.40;;
11671;SDS011;5892;43.412;24.612;2023-07-31T14:08:18;3.63;;;3.33;;
11671;SDS011;5892;43.412;24.612;2023-07-31T14:10:46;3.80;;;3.30;;
11671;SDS011;5892;43.412;24.612;2023-07-31T14:13:13;3.53;;;3.23;;
11671;SDS011;5892;43.412;24.612;2023-07-31T14:15:41;5.67;;;3.00;;
11671;SDS011;5892;43.412;24.612;2023-07-31T14:18:08;3.77;;;2.80;;
11671;SDS011;5892;43.412;24.612;2023-07-31T14:20:35;8.23;;;3.30;;
11671;SDS011;5892;43.412;24.612;2023-07-31T14:23:02;3.13;;;2.93;;
11671;SDS011;5892;43.412;24.612;2023-07-31T14:25:29;3.10;;;2.80;;
11671;SDS011;5892;43.412;24.612;2023-07-31T14:27:58;3.17;;;2.87;;
11671;SDS011;5892;43.412;24.612;2023-07-31T14:30:25;5.47;;;2.87;;
11671;SDS011;5892;43.412;24.612;2023-07-31T14:32:51;3.43;;;2.70;;
11671;SDS011;5892;43.412;24.612;2023-07-31T14:35:18;3.10;;;2.80;;
11671;SDS011;5892;43.412;24.612;2023-07-31T14:37:45;4.27;;;2.80;;
11671;SDS011;5892;43.412;24.612;2023-07-31T14:40:13;4.97;;;2.90;;
11671;SDS011;5892;43.412;24.612;2023-07-31T14:42:40;4.40;;;3.30;;
11671;SDS011;5892;43.412;24.612;2023-07-31T14:45:09;3.03;;;2.80;;
11671;SDS011;5892;43.412;24.612;2023-07-31T14:47:36;5.40;;;2.90;;